Briefing drone pour Chevigny-saint-sauveur

Rechercher une autre localisation

Conditions de vol :


Nous sommes le : Samedi 03 décembre 2022
Il est 08:33 UTC (09:33 LT)

Lever de soleil : 06:41 UTC (07:41 LT)
Coucher de soleil : 16:16 UTC (17:16 LT)

Météo

L'essentiel des conditions de vol

VIGILANCE MÉTÉO FRANCE - Côte-dOr (21)
Pas de vigilances particulieres
CARTES DES FRONTS
METAR de LFSD
LFSD 030830Z AUTO 35009KT 330V030 9999 BKN014 02/01 Q1014

Date d'émission: 03/12/2022
Heure d'émission: 08:30 UTC
Vent: 350° (variable du 330° au 030°) pour 9 KT (17 km/h)
Visibilité horizontale: > 10 km
Plafond :
- Nuages morcelés à 1400ft (427m)
Température: 2 °C
Point de rosée: 1 °C
Humidité: 93%
Pression (QNH): 1014 hPa
TAF de LFSD
LFSD 010600Z 0100/0124 CNL

Conditions prévues :

Heure d'émission : Bulletin éffectué le 01 à 00:00 UTC
Prévision : Valide du 01 a 00:00 UTC au 01 a 23:59 UTC
Nuages : à 0ft (0 m)
WEBCAM POUR CHEVIGNY-SAINT-SAUVEUR

Réglementation

Voler en sécurité

CARTES AERONAUTIQUE 1/500.000
CARTE AZBA (Reseau basse altitude)
CARTES VAC (LFSD)
SUP AIP




Chargement des AIP...
NOTAM (CHEVIGNY-SAINT-SAUVEUR + Terrain à proximité / FIR )




Chargement des NOTAMS...
CONTACT PREFECTURE 21
Côte-dOr (21) : pref-drone@cote-dor.gouv.fr


Avertissement : Les données mises à disposition sont indicatives. Oxygène Drone ne pourra être tenu responsable de dégâts causés aux biens et aux personnes.